createdAt,value
2023-01-07T00:01:23.763Z,8.20
2023-01-07T00:03:51.376Z,8.20
2023-01-07T00:06:38.024Z,8.20
2023-01-07T00:09:06.172Z,8.20
2023-01-07T00:11:35.536Z,8.10
2023-01-07T00:14:04.387Z,8.10
2023-01-07T00:16:32.464Z,8.20
2023-01-07T00:19:00.759Z,8.20
2023-01-07T00:21:28.289Z,8.10
2023-01-07T00:24:00.484Z,8.10
2023-01-07T00:26:30.944Z,8.10
2023-01-07T00:28:57.980Z,8.10
2023-01-07T00:31:27.217Z,8.10
2023-01-07T00:33:54.706Z,8.10
2023-01-07T00:36:23.145Z,8.10
2023-01-07T00:39:05.418Z,8.10
2023-01-07T00:41:32.724Z,8.10
2023-01-07T00:43:59.613Z,8.10
2023-01-07T00:46:26.633Z,8.00
2023-01-07T00:48:53.297Z,8.10
2023-01-07T00:51:20.094Z,8.10
2023-01-07T00:53:47.117Z,8.00
2023-01-07T00:56:14.872Z,8.00
2023-01-07T00:58:41.746Z,8.00
2023-01-07T01:01:09.585Z,8.00
2023-01-07T01:03:36.265Z,8.00
2023-01-07T01:06:08.843Z,8.00
2023-01-07T01:08:35.455Z,8.00
2023-01-07T01:11:10.032Z,8.00
2023-01-07T01:13:36.895Z,8.00
2023-01-07T01:16:11.747Z,8.00
2023-01-07T01:18:39.187Z,7.90
2023-01-07T01:21:07.552Z,7.90
2023-01-07T01:23:34.687Z,7.90
2023-01-07T01:26:06.922Z,7.90
2023-01-07T01:28:34.525Z,8.00
2023-01-07T01:31:01.623Z,7.90
2023-01-07T01:33:28.375Z,7.90
2023-01-07T01:35:54.955Z,7.90
2023-01-07T01:38:21.591Z,8.00
2023-01-07T01:40:48.344Z,8.00
2023-01-07T01:43:36.009Z,7.90
2023-01-07T01:46:10.550Z,7.90
2023-01-07T01:48:38.398Z,7.90
2023-01-07T01:51:08.431Z,7.90
2023-01-07T01:53:36.081Z,7.90
2023-01-07T01:56:09.914Z,7.90
2023-01-07T01:58:41.441Z,7.90
2023-01-07T02:01:08.293Z,7.90
2023-01-07T02:03:37.465Z,7.90
2023-01-07T02:06:05.535Z,7.90
2023-01-07T02:08:32.248Z,7.90
2023-01-07T02:11:17.466Z,7.90
2023-01-07T02:14:08.054Z,7.90
2023-01-07T02:16:47.114Z,7.90
2023-01-07T02:19:48.715Z,7.90
2023-01-07T02:23:02.081Z,7.90
2023-01-07T02:25:31.376Z,7.80
2023-01-07T02:28:46.523Z,7.80
2023-01-07T02:31:40.437Z,7.80
2023-01-07T02:34:30.860Z,7.80
2023-01-07T02:37:33.442Z,7.80
2023-01-07T02:40:21.232Z,7.80
2023-01-07T02:43:20.993Z,7.80
2023-01-07T02:45:49.608Z,7.80
2023-01-07T02:48:19.462Z,7.80
2023-01-07T02:50:46.014Z,7.80
2023-01-07T02:53:17.312Z,7.70
2023-01-07T02:55:51.704Z,7.80
2023-01-07T02:58:43.962Z,7.80
2023-01-07T03:01:34.576Z,7.80
2023-01-07T03:04:25.004Z,7.80
2023-01-07T03:07:19.339Z,7.80
2023-01-07T03:10:03.383Z,7.80
2023-01-07T03:12:44.936Z,7.80
2023-01-07T03:15:30.005Z,7.80
2023-01-07T03:18:18.935Z,7.70
2023-01-07T03:20:50.419Z,7.80
2023-01-07T03:23:20.186Z,7.80
2023-01-07T03:25:50.235Z,7.80
2023-01-07T03:28:21.029Z,7.80
2023-01-07T03:30:49.196Z,7.80
2023-01-07T03:33:23.881Z,7.70
2023-01-07T03:35:53.278Z,7.70
2023-01-07T03:38:22.970Z,7.70
2023-01-07T03:40:51.643Z,7.70
2023-01-07T03:43:22.006Z,7.60
2023-01-07T03:45:49.761Z,7.70
2023-01-07T03:48:16.427Z,7.70
2023-01-07T03:50:43.027Z,7.70
2023-01-07T03:53:09.573Z,7.70
2023-01-07T03:55:36.511Z,7.60
2023-01-07T03:58:03.130Z,7.60
2023-01-07T04:00:29.708Z,7.60
2023-01-07T04:02:56.236Z,7.60
2023-01-07T04:05:22.809Z,7.60
2023-01-07T04:07:49.347Z,7.60
2023-01-07T04:10:16.007Z,7.60
2023-01-07T04:12:42.547Z,7.60
2023-01-07T04:15:09.427Z,7.60
2023-01-07T04:17:36.011Z,7.60
2023-01-07T04:20:02.597Z,7.60
2023-01-07T04:22:29.125Z,7.60
2023-01-07T04:24:55.687Z,7.60
2023-01-07T04:27:22.223Z,7.60
2023-01-07T04:29:48.760Z,7.60
2023-01-07T04:32:15.365Z,7.60
2023-01-07T04:34:41.919Z,7.60
2023-01-07T04:37:08.446Z,7.60
2023-01-07T04:39:34.990Z,7.60
2023-01-07T04:42:01.553Z,7.60
2023-01-07T04:44:28.091Z,7.60
2023-01-07T04:46:54.642Z,7.60
2023-01-07T04:49:21.224Z,7.60
2023-01-07T04:51:47.859Z,7.60
2023-01-07T04:54:14.487Z,7.60
2023-01-07T04:56:41.052Z,7.60
2023-01-07T04:59:07.602Z,7.60
2023-01-07T05:01:34.306Z,7.60
2023-01-07T05:04:00.982Z,7.60
2023-01-07T05:06:27.623Z,7.60
2023-01-07T05:08:54.176Z,7.60
2023-01-07T05:11:20.728Z,7.60
2023-01-07T05:13:49.008Z,7.60
2023-01-07T05:16:16.087Z,7.60
2023-01-07T05:18:42.941Z,7.60
2023-01-07T05:21:09.731Z,7.50
2023-01-07T05:23:36.652Z,7.60
2023-01-07T05:26:04.061Z,7.50
2023-01-07T05:28:30.659Z,7.50
2023-01-07T05:30:57.278Z,7.50
2023-01-07T05:33:23.899Z,7.50
2023-01-07T05:35:50.480Z,7.60
2023-01-07T05:38:17.205Z,7.60
2023-01-07T05:40:43.869Z,7.60
2023-01-07T05:43:10.440Z,7.50
2023-01-07T05:45:37.011Z,7.50
2023-01-07T05:48:03.713Z,7.50
2023-01-07T05:50:30.245Z,7.50
2023-01-07T05:52:56.805Z,7.50
2023-01-07T05:55:23.382Z,7.50
2023-01-07T05:57:49.942Z,7.50
2023-01-07T06:00:16.808Z,7.50
2023-01-07T06:02:43.406Z,7.50
2023-01-07T06:05:10.782Z,7.50
2023-01-07T06:07:37.473Z,7.40
2023-01-07T06:10:04.500Z,7.40
2023-01-07T06:12:31.337Z,7.40
2023-01-07T06:14:57.955Z,7.40
2023-01-07T06:17:24.527Z,7.40
2023-01-07T06:19:51.063Z,7.30
2023-01-07T06:22:17.598Z,7.30
2023-01-07T06:24:44.192Z,7.30
2023-01-07T06:27:11.141Z,7.20
2023-01-07T06:29:37.686Z,7.20
2023-01-07T06:32:04.646Z,7.20
2023-01-07T06:34:31.267Z,7.20
2023-01-07T06:36:57.856Z,7.20
2023-01-07T06:39:24.461Z,7.10
2023-01-07T06:41:51.253Z,7.10
2023-01-07T06:44:17.811Z,7.10
2023-01-07T06:46:44.503Z,7.10
2023-01-07T06:49:11.234Z,7.10
2023-01-07T06:51:37.826Z,7.00
2023-01-07T06:54:04.443Z,7.00
2023-01-07T06:56:31.030Z,7.00
2023-01-07T06:58:57.584Z,7.00
2023-01-07T07:01:24.252Z,7.00
2023-01-07T07:03:50.886Z,6.90
2023-01-07T07:06:17.455Z,6.90
2023-01-07T07:08:44.005Z,6.90
2023-01-07T07:11:10.675Z,6.90
2023-01-07T07:13:37.233Z,6.90
2023-01-07T07:16:03.904Z,6.90
2023-01-07T07:18:30.506Z,6.80
2023-01-07T07:20:57.080Z,6.90
2023-01-07T07:23:23.702Z,6.90
2023-01-07T07:25:50.312Z,6.80
2023-01-07T07:28:16.882Z,6.80
2023-01-07T07:30:45.932Z,6.90
2023-01-07T07:33:15.266Z,6.90
2023-01-07T07:35:42.372Z,6.90
2023-01-07T07:38:09.295Z,6.80
2023-01-07T07:40:36.085Z,6.80
2023-01-07T07:43:10.834Z,6.80
2023-01-07T07:45:43.193Z,6.70
2023-01-07T07:48:12.073Z,6.60
2023-01-07T07:50:38.854Z,6.60
2023-01-07T07:53:05.581Z,6.60
2023-01-07T07:55:32.177Z,6.60
2023-01-07T07:57:59.851Z,6.50
2023-01-07T08:00:26.413Z,6.50
2023-01-07T08:02:53.019Z,6.40
2023-01-07T08:05:19.598Z,6.40
2023-01-07T08:07:46.174Z,6.30
2023-01-07T08:10:12.780Z,6.40
2023-01-07T08:12:39.817Z,6.40
2023-01-07T08:15:07.626Z,6.40
2023-01-07T08:17:34.387Z,6.40
2023-01-07T08:20:00.949Z,6.40
2023-01-07T08:22:27.590Z,6.40
2023-01-07T08:24:54.261Z,6.50
2023-01-07T08:27:20.853Z,6.60
2023-01-07T08:29:47.462Z,6.60
2023-01-07T08:32:14.054Z,6.60
2023-01-07T08:34:40.739Z,6.60
2023-01-07T08:37:07.297Z,6.60
2023-01-07T08:39:33.859Z,6.70
2023-01-07T08:42:00.446Z,6.70
2023-01-07T08:44:27.020Z,6.80
2023-01-07T08:46:54.041Z,6.90
2023-01-07T08:49:20.840Z,6.90
2023-01-07T08:51:47.456Z,7.00
2023-01-07T08:54:14.128Z,7.00
2023-01-07T08:56:40.827Z,7.20
2023-01-07T08:59:07.439Z,7.30
2023-01-07T09:01:34.087Z,7.40
2023-01-07T09:04:00.726Z,7.40
2023-01-07T09:06:27.315Z,7.50
2023-01-07T09:08:53.859Z,7.60
2023-01-07T09:11:20.421Z,7.70
2023-01-07T09:13:47.019Z,7.80
2023-01-07T09:16:13.675Z,8.00
2023-01-07T09:18:40.350Z,7.90
2023-01-07T09:21:06.923Z,7.80
2023-01-07T09:23:33.587Z,7.80
2023-01-07T09:26:00.160Z,7.90
2023-01-07T09:28:26.739Z,8.10
2023-01-07T09:30:54.861Z,8.20
2023-01-07T09:33:23.297Z,8.20
2023-01-07T09:35:49.885Z,8.10
2023-01-07T09:38:16.475Z,8.20
2023-01-07T09:40:44.331Z,8.20
2023-01-07T09:43:16.207Z,8.30
2023-01-07T09:45:52.315Z,8.10
2023-01-07T09:48:38.615Z,8.10
2023-01-07T09:51:07.352Z,8.30
2023-01-07T09:53:41.828Z,8.20
2023-01-07T09:56:15.241Z,8.20
2023-01-07T09:58:47.076Z,8.10
2023-01-07T10:01:32.014Z,8.10
2023-01-07T10:04:18.865Z,8.30
2023-01-07T10:06:54.920Z,8.20
2023-01-07T10:09:45.747Z,8.20
2023-01-07T10:12:33.192Z,8.20
2023-01-07T10:15:05.067Z,8.40
2023-01-07T10:18:05.030Z,8.40
2023-01-07T10:20:55.936Z,8.50
2023-01-07T10:23:27.494Z,8.50
2023-01-07T10:26:00.467Z,8.40
2023-01-07T10:28:35.616Z,8.40
2023-01-07T10:31:05.237Z,8.40
2023-01-07T10:33:33.447Z,8.40
2023-01-07T10:36:21.752Z,8.60
2023-01-07T10:39:20.279Z,8.50
2023-01-07T10:42:02.420Z,8.60
2023-01-07T10:44:45.706Z,8.70
2023-01-07T10:47:21.262Z,8.80
2023-01-07T10:50:00.515Z,8.90
2023-01-07T10:52:51.250Z,8.90
2023-01-07T10:55:39.106Z,9.00
2023-01-07T10:58:09.945Z,9.10
2023-01-07T11:00:37.738Z,9.10
2023-01-07T11:03:04.394Z,9.20
2023-01-07T11:05:38.361Z,9.20
2023-01-07T11:08:12.728Z,9.40
2023-01-07T11:10:39.844Z,9.40
2023-01-07T11:13:14.558Z,9.50
2023-01-07T11:16:00.647Z,9.50
2023-01-07T11:18:54.821Z,9.60
2023-01-07T11:21:43.815Z,9.60
2023-01-07T11:24:30.603Z,9.80
2023-01-07T11:27:19.471Z,10.10
2023-01-07T11:30:00.239Z,10.20
2023-01-07T11:32:36.428Z,10.40
2023-01-07T11:35:17.735Z,10.40
2023-01-07T11:37:49.200Z,10.60
2023-01-07T11:40:15.835Z,10.90
2023-01-07T11:42:50.214Z,11.10
2023-01-07T11:45:18.488Z,11.50
2023-01-07T11:47:55.013Z,11.80
2023-01-07T11:50:42.466Z,11.80
2023-01-07T11:53:12.080Z,12.00
2023-01-07T11:55:39.097Z,12.20
2023-01-07T11:58:29.552Z,12.40
2023-01-07T12:01:04.253Z,12.30
2023-01-07T12:03:30.923Z,12.10
2023-01-07T12:06:07.554Z,12.30
2023-01-07T12:08:35.037Z,12.50
2023-01-07T12:11:10.897Z,12.80
2023-01-07T12:13:40.962Z,12.80
2023-01-07T12:16:09.928Z,12.80
2023-01-07T12:19:02.680Z,13.00
2023-01-07T12:22:13.676Z,12.80
2023-01-07T12:24:50.501Z,12.80
2023-01-07T12:27:25.935Z,13.20
2023-01-07T12:30:13.474Z,13.30
2023-01-07T12:32:46.185Z,13.40
2023-01-07T12:35:27.788Z,13.60
2023-01-07T12:38:02.692Z,13.50
2023-01-07T12:40:50.637Z,13.70
2023-01-07T12:43:23.349Z,13.30
2023-01-07T12:45:57.392Z,12.90
2023-01-07T12:48:28.897Z,12.80
2023-01-07T12:50:59.657Z,13.40
2023-01-07T12:53:50.474Z,13.40
2023-01-07T12:56:40.461Z,13.30
2023-01-07T12:59:45.858Z,13.70
2023-01-07T13:02:37.580Z,13.30
2023-01-07T13:05:43.580Z,13.00
2023-01-07T13:08:26.951Z,12.60
2023-01-07T13:11:19.541Z,12.30
2023-01-07T13:13:51.552Z,12.50
2023-01-07T13:16:18.248Z,12.20
2023-01-07T13:18:44.868Z,12.10
2023-01-07T13:21:12.650Z,12.10
2023-01-07T13:24:21.655Z,12.20
2023-01-07T13:27:14.379Z,11.90
2023-01-07T13:30:02.634Z,11.70
2023-01-07T13:32:54.591Z,11.50
2023-01-07T13:35:46.724Z,11.40
2023-01-07T13:38:38.017Z,11.30
2023-01-07T13:41:38.924Z,11.10
2023-01-07T13:44:38.346Z,11.00
2023-01-07T13:47:06.126Z,10.90
2023-01-07T13:49:33.835Z,10.90
2023-01-07T13:52:18.657Z,10.80
2023-01-07T13:54:48.209Z,10.80
2023-01-07T13:57:23.984Z,10.80
2023-01-07T13:59:55.449Z,10.70
2023-01-07T14:02:23.401Z,10.70
2023-01-07T14:05:09.840Z,10.60
2023-01-07T14:08:03.502Z,10.60
2023-01-07T14:10:35.757Z,10.50
2023-01-07T14:13:21.119Z,10.50
2023-01-07T14:16:06.565Z,10.50
2023-01-07T14:18:44.845Z,10.50
2023-01-07T14:21:21.983Z,10.50
2023-01-07T14:24:04.099Z,10.50
2023-01-07T14:26:46.896Z,10.40
2023-01-07T14:29:32.852Z,10.40
2023-01-07T14:32:25.265Z,10.30
2023-01-07T14:34:58.538Z,10.30
2023-01-07T14:37:36.901Z,10.30
2023-01-07T14:40:26.255Z,10.20
2023-01-07T14:42:57.691Z,10.20
2023-01-07T14:45:36.443Z,10.10
2023-01-07T14:48:29.921Z,10.10
2023-01-07T14:51:37.749Z,10.10
2023-01-07T14:54:20.993Z,10.00
2023-01-07T14:57:05.320Z,10.00
2023-01-07T15:00:05.070Z,10.00
2023-01-07T15:02:58.062Z,10.20
2023-01-07T15:05:55.784Z,10.20
2023-01-07T15:08:25.893Z,9.90
2023-01-07T15:10:55.303Z,9.80
2023-01-07T15:13:22.202Z,9.60
2023-01-07T15:15:54.702Z,9.50
2023-01-07T15:18:21.954Z,9.40
2023-01-07T15:21:01.505Z,9.30
2023-01-07T15:23:41.237Z,9.20
2023-01-07T15:26:17.132Z,9.00
2023-01-07T15:28:51.054Z,8.90
2023-01-07T15:31:17.681Z,8.80
2023-01-07T15:34:07.259Z,8.70
2023-01-07T15:36:37.922Z,8.60
2023-01-07T15:39:04.944Z,8.50
2023-01-07T15:41:37.650Z,8.40
2023-01-07T15:44:07.020Z,8.30
2023-01-07T15:46:33.957Z,8.20
2023-01-07T15:49:09.585Z,8.10
2023-01-07T15:51:40.020Z,8.00
2023-01-07T15:54:21.166Z,8.00
2023-01-07T15:56:48.685Z,7.80
2023-01-07T15:59:16.215Z,7.80
2023-01-07T16:01:49.971Z,7.80
2023-01-07T16:04:26.583Z,7.80
2023-01-07T16:06:58.053Z,7.70
2023-01-07T16:09:25.509Z,7.60
2023-01-07T16:11:52.168Z,7.60
2023-01-07T16:14:24.696Z,7.50
2023-01-07T16:17:15.817Z,7.50
2023-01-07T16:19:42.696Z,7.30
2023-01-07T16:22:15.029Z,7.30
2023-01-07T16:25:11.723Z,7.20
2023-01-07T16:27:39.092Z,7.10
2023-01-07T16:30:12.189Z,7.00
2023-01-07T16:32:38.923Z,6.90
2023-01-07T16:35:33.535Z,6.90
2023-01-07T16:38:01.325Z,6.80
2023-01-07T16:40:34.656Z,6.80
2023-01-07T16:43:01.622Z,6.70
2023-01-07T16:45:30.694Z,6.60
2023-01-07T16:48:17.257Z,6.60
2023-01-07T16:50:45.602Z,6.50
2023-01-07T16:53:24.579Z,6.40
2023-01-07T16:56:15.785Z,6.40
2023-01-07T16:58:53.507Z,6.40
2023-01-07T17:01:29.641Z,6.30
2023-01-07T17:03:59.533Z,6.20
2023-01-07T17:06:38.928Z,6.10
2023-01-07T17:09:05.682Z,6.10
2023-01-07T17:11:37.003Z,6.10
2023-01-07T17:14:04.050Z,6.00
2023-01-07T17:16:32.417Z,5.90
2023-01-07T17:19:23.153Z,5.90
2023-01-07T17:21:49.771Z,5.80
2023-01-07T17:24:23.422Z,5.70
2023-01-07T17:26:51.052Z,5.70
2023-01-07T17:29:18.934Z,5.70
2023-01-07T17:31:46.435Z,5.60
2023-01-07T17:34:14.030Z,5.60
2023-01-07T17:36:40.710Z,5.60
2023-01-07T17:39:07.267Z,5.50
2023-01-07T17:41:35.928Z,5.50
2023-01-07T17:44:04.070Z,5.60
2023-01-07T17:46:30.629Z,5.50
2023-01-07T17:48:58.327Z,5.40
2023-01-07T17:51:26.263Z,5.30
2023-01-07T17:53:55.176Z,5.30
2023-01-07T17:56:21.863Z,5.20
2023-01-07T17:58:48.493Z,5.20
2023-01-07T18:01:17.594Z,5.10
2023-01-07T18:03:44.547Z,5.10
2023-01-07T18:06:21.429Z,5.10
2023-01-07T18:08:49.746Z,5.00
2023-01-07T18:11:25.070Z,4.90
2023-01-07T18:13:51.654Z,4.90
2023-01-07T18:16:18.299Z,4.90
2023-01-07T18:18:44.880Z,4.90
2023-01-07T18:21:11.952Z,4.80
2023-01-07T18:23:38.606Z,4.90
2023-01-07T18:26:05.909Z,4.80
2023-01-07T18:28:32.464Z,4.80
2023-01-07T18:30:59.001Z,4.70
2023-01-07T18:33:26.865Z,4.60
2023-01-07T18:35:53.433Z,4.70
2023-01-07T18:38:19.967Z,4.60
2023-01-07T18:40:46.578Z,4.60
2023-01-07T18:43:18.035Z,4.60
2023-01-07T18:45:46.267Z,4.60
2023-01-07T18:48:14.575Z,4.50
2023-01-07T18:50:45.945Z,4.40
2023-01-07T18:53:13.057Z,4.40
2023-01-07T18:55:41.460Z,4.40
2023-01-07T18:58:10.090Z,4.40
2023-01-07T19:00:36.701Z,4.40
2023-01-07T19:03:03.313Z,4.40
2023-01-07T19:05:30.404Z,4.30
2023-01-07T19:07:57.000Z,4.30
2023-01-07T19:10:24.907Z,4.30
2023-01-07T19:12:51.839Z,4.20
2023-01-07T19:15:18.844Z,4.20
2023-01-07T19:17:45.386Z,4.20
2023-01-07T19:20:12.456Z,4.20
2023-01-07T19:22:39.059Z,4.10
2023-01-07T19:25:06.199Z,4.10
2023-01-07T19:27:32.830Z,4.00
2023-01-07T19:29:59.397Z,4.00
2023-01-07T19:32:25.974Z,4.10
2023-01-07T19:34:52.524Z,4.00
2023-01-07T19:37:19.225Z,4.00
2023-01-07T19:39:45.816Z,4.00
2023-01-07T19:42:12.386Z,3.90
2023-01-07T19:44:38.942Z,3.90
2023-01-07T19:47:05.525Z,3.90
2023-01-07T19:49:32.117Z,3.90
2023-01-07T19:51:58.671Z,3.90
2023-01-07T19:54:25.246Z,3.90
2023-01-07T19:56:53.141Z,4.00
2023-01-07T19:59:19.774Z,3.90
2023-01-07T20:01:46.463Z,3.90
2023-01-07T20:04:13.489Z,3.90
2023-01-07T20:06:40.028Z,3.90
2023-01-07T20:09:07.378Z,3.80
2023-01-07T20:11:34.203Z,3.80
2023-01-07T20:14:00.782Z,3.70
2023-01-07T20:16:27.405Z,3.70
2023-01-07T20:18:55.461Z,3.70
2023-01-07T20:21:24.707Z,3.60
2023-01-07T20:23:51.389Z,3.50
2023-01-07T20:26:20.833Z,3.50
2023-01-07T20:28:47.535Z,3.40
2023-01-07T20:31:15.991Z,3.30
2023-01-07T20:33:43.912Z,3.40
2023-01-07T20:36:11.812Z,3.40
2023-01-07T20:38:39.071Z,3.40
2023-01-07T20:41:07.292Z,3.40
2023-01-07T20:43:35.744Z,3.40
2023-01-07T20:46:04.446Z,3.30
2023-01-07T20:48:31.051Z,3.40
2023-01-07T20:50:58.024Z,3.40
2023-01-07T20:53:25.571Z,3.30
2023-01-07T20:55:59.793Z,3.30
2023-01-07T20:58:27.284Z,3.30
2023-01-07T21:00:53.934Z,3.20
2023-01-07T21:03:20.524Z,3.20
2023-01-07T21:05:47.105Z,3.20
2023-01-07T21:08:13.666Z,3.10
2023-01-07T21:10:40.841Z,3.10
2023-01-07T21:13:07.466Z,3.10
2023-01-07T21:15:34.013Z,3.10
2023-01-07T21:18:00.624Z,3.10
2023-01-07T21:20:27.373Z,3.10
2023-01-07T21:22:53.932Z,3.10
2023-01-07T21:25:20.500Z,3.10
2023-01-07T21:27:47.055Z,3.00
2023-01-07T21:30:14.087Z,3.00
2023-01-07T21:32:41.252Z,2.90
2023-01-07T21:35:09.445Z,2.90
2023-01-07T21:37:36.089Z,2.80
2023-01-07T21:40:03.540Z,2.80
2023-01-07T21:42:30.104Z,2.80
2023-01-07T21:44:56.671Z,2.70
2023-01-07T21:47:23.274Z,2.80
2023-01-07T21:49:49.840Z,2.70
2023-01-07T21:52:16.431Z,2.70
2023-01-07T21:54:42.967Z,2.70
2023-01-07T21:57:09.667Z,2.60
2023-01-07T21:59:36.224Z,2.70
2023-01-07T22:02:02.988Z,2.60
2023-01-07T22:04:29.709Z,2.60
2023-01-07T22:06:56.344Z,2.70
2023-01-07T22:09:22.911Z,2.70
2023-01-07T22:11:49.452Z,2.60
2023-01-07T22:14:18.111Z,2.60
2023-01-07T22:16:46.910Z,2.50
2023-01-07T22:19:15.406Z,2.50
2023-01-07T22:21:42.030Z,2.50
2023-01-07T22:24:09.203Z,2.50
2023-01-07T22:26:35.893Z,2.40
2023-01-07T22:29:06.267Z,2.40
2023-01-07T22:31:34.721Z,2.40
2023-01-07T22:34:01.329Z,2.40
2023-01-07T22:36:34.778Z,2.40
2023-01-07T22:39:08.435Z,2.40
2023-01-07T22:41:35.160Z,2.40
2023-01-07T22:44:10.145Z,2.40
2023-01-07T22:46:38.043Z,2.40
2023-01-07T22:49:05.025Z,2.40
2023-01-07T22:51:37.975Z,2.40
2023-01-07T22:54:05.752Z,2.30
2023-01-07T22:56:33.281Z,2.30
2023-01-07T22:58:59.949Z,2.30
2023-01-07T23:01:26.593Z,2.30
2023-01-07T23:03:53.241Z,2.30
2023-01-07T23:06:19.952Z,2.30
2023-01-07T23:08:46.654Z,2.30
2023-01-07T23:11:13.287Z,2.30
2023-01-07T23:13:39.858Z,2.30
2023-01-07T23:16:06.945Z,2.30
2023-01-07T23:18:33.477Z,2.30
2023-01-07T23:21:00.193Z,2.20
2023-01-07T23:23:26.720Z,2.20
2023-01-07T23:25:53.302Z,2.10
2023-01-07T23:28:19.860Z,2.10
2023-01-07T23:30:47.383Z,2.10
2023-01-07T23:33:13.932Z,2.10
2023-01-07T23:35:40.501Z,2.10
2023-01-07T23:38:07.078Z,2.10
2023-01-07T23:40:33.653Z,2.00
2023-01-07T23:43:00.206Z,2.10
2023-01-07T23:45:26.806Z,2.10
2023-01-07T23:47:53.418Z,2.10
2023-01-07T23:50:19.993Z,2.10
2023-01-07T23:52:46.608Z,2.10
2023-01-07T23:55:13.155Z,2.10
2023-01-07T23:57:39.715Z,2.10
